createdAt,value
2019-05-22T00:00:29.716Z,64.10
2019-05-22T00:03:02.090Z,64.10
2019-05-22T00:05:33.117Z,64.00
2019-05-22T00:08:05.258Z,64.10
2019-05-22T00:10:38.601Z,64.30
2019-05-22T00:13:09.971Z,64.40
2019-05-22T00:15:40.053Z,64.40
2019-05-22T00:18:10.382Z,64.40
2019-05-22T00:20:42.294Z,64.20
2019-05-22T00:23:12.520Z,64.30
2019-05-22T00:25:44.870Z,64.20
2019-05-22T00:28:15.456Z,64.00
2019-05-22T00:30:48.290Z,64.00
2019-05-22T00:33:18.323Z,63.90
2019-05-22T00:35:48.209Z,63.80
2019-05-22T00:38:18.797Z,63.60
2019-05-22T00:40:53.137Z,63.70
2019-05-22T00:43:31.316Z,63.90
2019-05-22T00:46:05.236Z,63.40
2019-05-22T00:48:36.596Z,63.40
2019-05-22T00:51:28.099Z,63.20
2019-05-22T00:54:00.386Z,63.20
2019-05-22T00:56:33.513Z,63.40
2019-05-22T00:59:21.432Z,63.20
2019-05-22T01:01:55.656Z,63.50
2019-05-22T01:04:32.361Z,63.40
2019-05-22T01:07:06.884Z,63.10
2019-05-22T01:09:40.044Z,63.00
2019-05-22T01:12:17.660Z,62.60
2019-05-22T01:14:49.994Z,62.30
2019-05-22T01:17:21.957Z,62.50
2019-05-22T01:19:54.838Z,62.50
2019-05-22T01:22:26.693Z,62.80
2019-05-22T01:24:57.630Z,63.10
2019-05-22T01:27:29.809Z,62.80
2019-05-22T01:30:00.656Z,63.00
2019-05-22T01:32:38.008Z,63.10
2019-05-22T01:35:10.283Z,63.10
2019-05-22T01:37:41.600Z,63.10
2019-05-22T01:40:19.536Z,63.40
2019-05-22T01:42:55.274Z,63.40
2019-05-22T01:45:25.613Z,63.50
2019-05-22T01:48:03.364Z,63.60
2019-05-22T01:50:44.335Z,63.70
2019-05-22T01:53:18.102Z,63.70
2019-05-22T01:55:51.753Z,63.90
2019-05-22T01:58:21.800Z,63.90
2019-05-22T02:09:41.875Z,63.60
2019-05-22T02:12:35.552Z,63.60
2019-05-22T02:15:07.651Z,63.50
2019-05-22T02:17:37.771Z,63.30
2019-05-22T02:20:09.432Z,63.30
2019-05-22T02:22:40.963Z,63.20
2019-05-22T02:25:12.065Z,63.10
2019-05-22T02:27:42.698Z,63.00
2019-05-22T02:30:15.806Z,62.70
2019-05-22T02:32:47.279Z,62.80
2019-05-22T02:35:18.379Z,62.60
2019-05-22T02:37:48.422Z,62.80
2019-05-22T02:40:32.074Z,62.90
2019-05-22T02:43:02.314Z,62.90
2019-05-22T02:45:32.926Z,62.70
2019-05-22T02:48:06.644Z,62.90
2019-05-22T02:50:37.952Z,62.80
2019-05-22T02:53:11.518Z,62.80
2019-05-22T02:55:41.221Z,62.90
2019-05-22T02:58:11.132Z,62.90
2019-05-22T03:01:00.409Z,62.90
2019-05-22T03:03:32.000Z,63.00
2019-05-22T03:06:05.522Z,63.10
2019-05-22T03:08:59.914Z,63.10
2019-05-22T03:11:38.198Z,63.10
2019-05-22T03:14:11.272Z,63.10
2019-05-22T03:17:05.937Z,63.10
2019-05-22T03:19:45.892Z,63.40
2019-05-22T03:22:27.994Z,62.90
2019-05-22T03:25:03.770Z,62.80
2019-05-22T03:27:41.015Z,62.90
2019-05-22T03:30:21.670Z,63.00
2019-05-22T03:32:52.884Z,62.70
2019-05-22T03:35:25.957Z,62.60
2019-05-22T03:37:57.228Z,62.60
2019-05-22T03:40:30.023Z,62.50
2019-05-22T03:43:09.920Z,62.70
2019-05-22T03:45:42.133Z,62.90
2019-05-22T03:48:11.912Z,62.90
2019-05-22T03:50:42.112Z,62.90
2019-05-22T03:53:19.189Z,62.90
2019-05-22T03:55:49.845Z,62.90
2019-05-22T03:58:22.195Z,62.90
2019-05-22T04:00:56.766Z,62.90
2019-05-22T04:03:27.699Z,63.10
2019-05-22T04:05:57.461Z,62.90
2019-05-22T04:08:27.532Z,63.00
2019-05-22T04:11:03.020Z,63.10
2019-05-22T04:13:34.421Z,63.30
2019-05-22T04:16:09.229Z,63.40
2019-05-22T04:18:40.939Z,63.50
2019-05-22T04:21:10.749Z,63.40
2019-05-22T04:23:40.609Z,63.40
2019-05-22T04:26:12.131Z,63.50
2019-05-22T04:28:52.555Z,63.50
2019-05-22T04:31:44.404Z,63.50
2019-05-22T04:34:14.147Z,63.50
2019-05-22T04:36:44.541Z,63.60
2019-05-22T04:39:26.843Z,63.40
2019-05-22T04:41:58.981Z,63.40
2019-05-22T04:44:29.346Z,63.40
2019-05-22T04:47:00.503Z,63.40
2019-05-22T04:49:30.219Z,63.30
2019-05-22T04:51:59.842Z,63.30
2019-05-22T04:54:30.053Z,63.10
2019-05-22T04:56:59.814Z,62.90
2019-05-22T04:59:30.365Z,62.80
2019-05-22T05:02:01.006Z,63.00
2019-05-22T05:04:30.760Z,63.00
2019-05-22T05:07:00.940Z,63.10
2019-05-22T05:09:31.578Z,63.20
2019-05-22T05:12:01.193Z,63.20
2019-05-22T05:14:32.119Z,63.30
2019-05-22T05:17:02.005Z,63.20
2019-05-22T05:19:33.216Z,63.10
2019-05-22T05:22:02.939Z,62.90
2019-05-22T05:24:32.684Z,62.70
2019-05-22T05:27:03.163Z,62.70
2019-05-22T05:29:33.469Z,62.70
2019-05-22T05:32:03.664Z,62.70
2019-05-22T05:34:45.114Z,62.90
2019-05-22T05:37:13.430Z,63.00
2019-05-22T05:39:56.107Z,63.00
2019-05-22T05:42:26.039Z,63.10
2019-05-22T05:44:55.898Z,63.10
2019-05-22T05:47:25.584Z,63.10
2019-05-22T05:49:56.272Z,63.10
2019-05-22T05:52:28.812Z,63.20
2019-05-22T05:55:00.128Z,63.40
2019-05-22T05:57:40.996Z,63.40
2019-05-22T06:00:28.154Z,63.40
2019-05-22T06:03:05.820Z,63.50
2019-05-22T06:05:35.862Z,63.50
2019-05-22T06:08:06.012Z,63.30
2019-05-22T06:10:52.099Z,63.30
2019-05-22T06:13:24.380Z,63.30
2019-05-22T06:16:11.890Z,63.20
2019-05-22T06:18:43.577Z,63.00
2019-05-22T06:21:14.544Z,63.00
2019-05-22T06:23:50.127Z,63.90
2019-05-22T06:26:48.073Z,63.00
2019-05-22T06:29:19.982Z,62.90
2019-05-22T06:31:56.887Z,62.90
2019-05-22T06:34:27.012Z,62.90
2019-05-22T06:36:59.822Z,63.00
2019-05-22T06:39:29.563Z,62.90
2019-05-22T06:42:00.351Z,62.90
2019-05-22T06:44:34.192Z,62.80
2019-05-22T06:47:06.557Z,62.90
2019-05-22T06:49:40.282Z,62.60
2019-05-22T06:52:10.225Z,62.40
2019-05-22T06:54:40.368Z,62.10
2019-05-22T06:57:16.392Z,62.00
2019-05-22T06:59:47.935Z,61.90
2019-05-22T07:02:17.860Z,62.10
2019-05-22T07:04:48.624Z,61.90
2019-05-22T07:07:20.026Z,61.60
2019-05-22T07:09:49.847Z,61.90
2019-05-22T07:12:20.667Z,61.80
2019-05-22T07:15:12.049Z,61.40
2019-05-22T07:17:42.622Z,61.70
2019-05-22T07:20:15.423Z,61.90
2019-05-22T07:22:45.107Z,62.00
2019-05-22T07:25:15.205Z,61.00
2019-05-22T07:27:45.493Z,60.40
2019-05-22T07:30:16.445Z,60.20
2019-05-22T07:32:46.383Z,59.80
2019-05-22T07:35:16.224Z,59.70
2019-05-22T07:37:49.386Z,59.50
2019-05-22T07:40:20.039Z,59.10
2019-05-22T07:42:52.413Z,58.60
2019-05-22T07:45:27.377Z,57.60
2019-05-22T07:47:58.785Z,57.50
2019-05-22T07:50:29.288Z,57.00
2019-05-22T07:52:59.203Z,57.00
2019-05-22T07:55:32.880Z,57.10
2019-05-22T07:58:12.635Z,57.20
2019-05-22T08:00:47.958Z,57.20
2019-05-22T08:03:17.888Z,57.00
2019-05-22T08:05:56.752Z,56.60
2019-05-22T08:08:29.833Z,56.60
2019-05-22T08:11:00.221Z,56.40
2019-05-22T08:13:32.402Z,56.40
2019-05-22T08:16:02.472Z,56.30
2019-05-22T08:18:34.231Z,55.90
2019-05-22T08:21:04.275Z,56.00
2019-05-22T08:23:34.541Z,56.10
2019-05-22T08:26:05.247Z,56.40
2019-05-22T08:28:35.066Z,56.30
2019-05-22T08:31:07.556Z,56.30
2019-05-22T08:33:39.389Z,56.70
2019-05-22T08:36:10.676Z,56.10
2019-05-22T08:38:41.473Z,56.10
2019-05-22T08:41:13.670Z,55.30
2019-05-22T08:44:15.137Z,55.40
2019-05-22T08:46:18.885Z,55.40
2019-05-22T08:48:49.752Z,54.70
2019-05-22T08:51:20.314Z,54.40
2019-05-22T08:53:51.845Z,54.20
2019-05-22T08:56:22.071Z,54.40
2019-05-22T08:58:54.174Z,54.70
2019-05-22T09:01:23.969Z,54.70
2019-05-22T09:03:54.705Z,54.80
2019-05-22T09:06:24.583Z,55.00
2019-05-22T09:08:54.194Z,54.50
2019-05-22T09:11:24.072Z,53.90
2019-05-22T09:13:54.107Z,54.10
2019-05-22T09:16:23.942Z,53.90
2019-05-22T09:18:54.407Z,53.90
2019-05-22T09:21:25.259Z,53.70
2019-05-22T09:23:56.212Z,53.90
2019-05-22T09:26:26.949Z,54.00
2019-05-22T09:28:56.929Z,54.00
2019-05-22T09:31:26.552Z,53.90
2019-05-22T09:33:56.235Z,54.10
2019-05-22T09:36:26.191Z,54.30
2019-05-22T09:38:56.238Z,54.40
2019-05-22T09:41:25.976Z,54.60
2019-05-22T09:43:55.569Z,54.70
2019-05-22T09:46:25.858Z,54.80
2019-05-22T09:48:56.759Z,54.80
2019-05-22T09:51:26.729Z,55.20
2019-05-22T09:53:56.800Z,54.80
2019-05-22T09:56:28.004Z,54.60
2019-05-22T09:58:57.747Z,54.50
2019-05-22T10:01:27.490Z,54.70
2019-05-22T10:03:57.138Z,54.60
2019-05-22T10:06:27.273Z,54.40
2019-05-22T10:08:57.013Z,53.80
2019-05-22T10:11:27.181Z,53.80
2019-05-22T10:13:57.057Z,53.80
2019-05-22T10:16:26.776Z,53.60
2019-05-22T10:18:56.775Z,53.30
2019-05-22T10:21:27.642Z,53.30
2019-05-22T10:23:58.555Z,53.40
2019-05-22T10:26:28.641Z,53.70
2019-05-22T10:28:58.561Z,53.90
2019-05-22T10:31:28.233Z,53.90
2019-05-22T10:33:57.916Z,53.70
2019-05-22T10:36:28.002Z,53.20
2019-05-22T10:38:57.880Z,51.90
2019-05-22T10:41:27.770Z,52.10
2019-05-22T10:43:57.700Z,52.20
2019-05-22T10:46:27.515Z,52.20
2019-05-22T10:48:57.480Z,52.10
2019-05-22T10:51:27.154Z,50.50
2019-05-22T10:53:56.927Z,50.20
2019-05-22T10:56:27.382Z,49.60
2019-05-22T10:58:57.125Z,50.00
2019-05-22T11:01:27.637Z,49.70
2019-05-22T11:03:58.028Z,48.50
2019-05-22T11:06:27.918Z,47.30
2019-05-22T11:08:58.197Z,47.50
2019-05-22T11:11:28.365Z,48.30
2019-05-22T11:14:01.836Z,48.60
2019-05-22T11:16:30.140Z,48.60
2019-05-22T11:19:00.992Z,48.70
2019-05-22T11:21:31.233Z,48.80
2019-05-22T11:24:01.401Z,48.90
2019-05-22T11:26:31.372Z,49.50
2019-05-22T11:29:01.124Z,50.00
2019-05-22T11:31:31.494Z,50.30
2019-05-22T11:34:01.091Z,50.50
2019-05-22T11:36:31.483Z,50.90
2019-05-22T11:39:01.290Z,50.50
2019-05-22T11:41:30.996Z,50.60
2019-05-22T11:44:00.990Z,50.90
2019-05-22T11:46:31.086Z,51.00
2019-05-22T11:49:01.981Z,50.80
2019-05-22T11:51:31.913Z,50.40
2019-05-22T11:54:09.120Z,50.70
2019-05-22T11:56:33.947Z,51.10
2019-05-22T11:59:04.594Z,51.40
2019-05-22T12:01:34.536Z,51.60
2019-05-22T12:04:05.709Z,51.70
2019-05-22T12:06:35.993Z,51.70
2019-05-22T12:09:09.187Z,51.60
2019-05-22T12:11:42.997Z,51.50
2019-05-22T12:14:11.495Z,51.60
2019-05-22T12:16:42.822Z,51.80
2019-05-22T12:19:13.703Z,52.00
2019-05-22T12:21:43.754Z,52.20
2019-05-22T12:24:26.282Z,52.10
2019-05-22T12:26:45.159Z,52.00
2019-05-22T12:29:17.345Z,52.10
2019-05-22T12:31:46.933Z,52.40
2019-05-22T12:34:19.477Z,52.30
2019-05-22T12:36:51.481Z,52.20
2019-05-22T12:39:23.511Z,52.60
2019-05-22T12:41:54.183Z,52.70
2019-05-22T12:44:23.983Z,53.20
2019-05-22T12:46:54.302Z,52.70
2019-05-22T12:49:24.945Z,52.90
2019-05-22T12:51:54.921Z,53.10
2019-05-22T12:54:24.890Z,52.90
2019-05-22T12:56:54.907Z,52.60
2019-05-22T12:59:26.706Z,52.50
2019-05-22T13:01:58.210Z,52.60
2019-05-22T13:04:30.943Z,52.30
2019-05-22T13:07:01.841Z,52.30
2019-05-22T13:09:32.434Z,52.30
2019-05-22T13:12:03.185Z,53.00
2019-05-22T13:14:33.027Z,52.40
2019-05-22T13:17:05.139Z,52.30
2019-05-22T13:19:36.402Z,52.60
2019-05-22T13:22:10.782Z,52.80
2019-05-22T13:24:40.893Z,52.50
2019-05-22T13:27:13.883Z,52.40
2019-05-22T13:29:44.420Z,52.90
2019-05-22T13:32:17.620Z,52.90
2019-05-22T13:34:47.218Z,53.00
2019-05-22T13:37:18.076Z,52.70
2019-05-22T13:39:47.685Z,52.50
2019-05-22T13:42:17.960Z,52.50
2019-05-22T13:44:48.144Z,52.40
2019-05-22T13:47:17.966Z,51.70
2019-05-22T13:49:48.208Z,51.80
2019-05-22T13:52:17.829Z,51.70
2019-05-22T13:54:48.378Z,51.80
2019-05-22T13:57:18.424Z,52.60
2019-05-22T13:59:48.343Z,51.30
2019-05-22T14:02:18.110Z,50.70
2019-05-22T14:04:48.317Z,49.50
2019-05-22T14:07:18.849Z,47.50
2019-05-22T14:09:49.147Z,47.80
2019-05-22T14:12:19.001Z,47.40
2019-05-22T14:14:48.936Z,47.60
2019-05-22T14:17:18.826Z,47.50
2019-05-22T14:19:49.139Z,47.00
2019-05-22T14:22:18.913Z,45.70
2019-05-22T14:24:48.871Z,45.10
2019-05-22T14:27:18.737Z,43.80
2019-05-22T14:29:48.382Z,43.40
2019-05-22T14:32:18.602Z,43.80
2019-05-22T14:34:48.557Z,44.40
2019-05-22T14:37:18.857Z,44.80
2019-05-22T14:39:49.185Z,44.30
2019-05-22T14:42:20.602Z,44.70
2019-05-22T14:44:50.862Z,44.60
2019-05-22T14:47:21.263Z,45.40
2019-05-22T14:49:51.457Z,45.70
2019-05-22T14:52:21.116Z,45.80
2019-05-22T14:54:51.130Z,45.70
2019-05-22T14:57:21.203Z,45.40
2019-05-22T14:59:51.387Z,44.50
2019-05-22T15:02:22.650Z,45.00
2019-05-22T15:04:52.329Z,45.40
2019-05-22T15:07:22.099Z,44.30
2019-05-22T15:09:51.723Z,44.00
2019-05-22T15:12:22.086Z,44.20
2019-05-22T15:14:52.645Z,44.70
2019-05-22T15:17:32.498Z,44.30
2019-05-22T15:19:55.537Z,43.60
2019-05-22T15:22:25.679Z,44.20
2019-05-22T15:24:58.833Z,44.20
2019-05-22T15:27:28.623Z,44.30
2019-05-22T15:29:58.992Z,44.20
2019-05-22T15:32:29.509Z,44.30
2019-05-22T15:34:59.283Z,44.20
2019-05-22T15:37:30.123Z,43.80
2019-05-22T15:40:01.371Z,44.00
2019-05-22T15:42:41.323Z,44.20
2019-05-22T15:45:22.004Z,44.00
2019-05-22T15:47:57.039Z,43.90
2019-05-22T15:50:33.958Z,44.10
2019-05-22T15:53:15.018Z,44.00
2019-05-22T15:55:46.080Z,44.20
2019-05-22T15:58:19.005Z,44.20
2019-05-22T16:00:50.731Z,43.30
2019-05-22T16:03:25.038Z,43.10
2019-05-22T16:05:56.769Z,43.40
2019-05-22T16:08:27.327Z,43.40
2019-05-22T16:11:00.805Z,43.20
2019-05-22T16:13:34.178Z,43.10
2019-05-22T16:16:06.565Z,42.70
2019-05-22T16:18:38.927Z,42.40
2019-05-22T16:21:11.537Z,42.60
2019-05-22T16:23:43.046Z,42.30
2019-05-22T16:26:14.676Z,42.20
2019-05-22T16:28:48.096Z,41.70
2019-05-22T16:31:21.788Z,41.30
2019-05-22T16:33:53.681Z,40.40
2019-05-22T16:36:24.966Z,40.40
2019-05-22T16:38:54.742Z,40.10
2019-05-22T16:41:26.460Z,39.40
2019-05-22T16:43:58.240Z,39.60
2019-05-22T16:46:29.030Z,39.10
2019-05-22T16:48:59.540Z,38.70
2019-05-22T16:51:30.822Z,38.90
2019-05-22T16:54:08.450Z,38.70
2019-05-22T16:56:41.026Z,38.70
2019-05-22T16:59:13.529Z,38.70
2019-05-22T17:01:58.629Z,38.80
2019-05-22T17:04:16.886Z,39.10
2019-05-22T17:06:46.746Z,39.30
2019-05-22T17:09:17.124Z,39.50
2019-05-22T17:11:47.495Z,39.30
2019-05-22T17:14:19.681Z,39.50
2019-05-22T17:16:51.719Z,39.10
2019-05-22T17:19:27.178Z,39.10
2019-05-22T17:21:53.881Z,39.50
2019-05-22T17:24:24.144Z,39.80
2019-05-22T17:26:55.043Z,39.80
2019-05-22T17:29:25.817Z,39.50
2019-05-22T17:31:56.320Z,39.00
2019-05-22T17:34:33.417Z,39.00
2019-05-22T17:37:07.964Z,38.60
2019-05-22T17:39:41.066Z,38.10
2019-05-22T17:42:18.106Z,38.10
2019-05-22T17:44:50.764Z,38.00
2019-05-22T17:47:21.764Z,37.80
2019-05-22T17:49:52.165Z,39.50
2019-05-22T17:52:23.301Z,37.90
2019-05-22T17:54:53.679Z,36.70
2019-05-22T17:57:24.243Z,36.60
2019-05-22T17:59:54.554Z,36.60
2019-05-22T18:02:25.867Z,36.70
2019-05-22T18:04:56.545Z,36.50
2019-05-22T18:07:27.430Z,36.50
2019-05-22T18:09:57.348Z,36.70
2019-05-22T18:12:29.324Z,36.70
2019-05-22T18:15:00.323Z,37.00
2019-05-22T18:17:30.008Z,36.80
2019-05-22T18:19:59.819Z,37.00
2019-05-22T18:22:30.213Z,37.10
2019-05-22T18:25:00.010Z,37.50
2019-05-22T18:27:30.815Z,37.70
2019-05-22T18:30:00.460Z,37.70
2019-05-22T18:32:31.756Z,37.70
2019-05-22T18:35:01.487Z,37.50
2019-05-22T18:37:31.239Z,37.60
2019-05-22T18:40:20.343Z,37.00
2019-05-22T18:42:50.273Z,36.00
2019-05-22T18:45:21.415Z,35.50
2019-05-22T18:47:51.391Z,34.90
2019-05-22T18:50:22.094Z,34.40
2019-05-22T18:52:52.299Z,34.00
2019-05-22T18:55:22.059Z,33.80
2019-05-22T18:57:52.063Z,33.20
2019-05-22T19:00:24.312Z,32.80
2019-05-22T19:02:53.915Z,32.60
2019-05-22T19:05:28.475Z,32.50
2019-05-22T19:07:58.705Z,32.30
2019-05-22T19:10:28.691Z,32.00
2019-05-22T19:12:58.422Z,31.90
2019-05-22T19:15:28.884Z,31.70
2019-05-22T19:17:59.092Z,31.70
2019-05-22T19:20:28.776Z,32.00
2019-05-22T19:23:01.601Z,32.10
2019-05-22T19:25:30.417Z,32.30
2019-05-22T19:28:00.345Z,32.80
2019-05-22T19:30:30.288Z,33.00
2019-05-22T19:33:00.223Z,33.40
2019-05-22T19:35:29.954Z,33.80
2019-05-22T19:38:00.842Z,34.90
2019-05-22T19:40:31.076Z,34.50
2019-05-22T19:43:01.075Z,34.90
2019-05-22T19:45:31.335Z,35.40
2019-05-22T19:48:01.906Z,35.70
2019-05-22T19:50:33.259Z,36.20
2019-05-22T19:53:18.141Z,36.60
2019-05-22T19:55:34.652Z,37.10
2019-05-22T19:58:04.358Z,37.60
2019-05-22T20:00:34.647Z,37.80
2019-05-22T20:03:04.753Z,38.20
2019-05-22T20:05:35.330Z,38.30
2019-05-22T20:08:06.029Z,38.60
2019-05-22T20:10:35.799Z,38.90
2019-05-22T20:13:06.585Z,39.70
2019-05-22T20:15:36.605Z,39.90
2019-05-22T20:18:07.917Z,40.20
2019-05-22T20:20:38.099Z,40.40
2019-05-22T20:23:08.315Z,40.60
2019-05-22T20:25:38.110Z,40.70
2019-05-22T20:28:09.503Z,40.80
2019-05-22T20:30:39.386Z,40.90
2019-05-22T20:33:09.194Z,41.00
2019-05-22T20:35:38.964Z,40.90
2019-05-22T20:38:08.854Z,41.10
2019-05-22T20:40:39.141Z,41.50
2019-05-22T20:43:08.889Z,42.00
2019-05-22T20:45:41.074Z,42.50
2019-05-22T20:48:16.216Z,42.90
2019-05-22T20:50:46.183Z,43.00
2019-05-22T20:53:17.269Z,43.20
2019-05-22T20:55:49.030Z,43.40
2019-05-22T20:58:21.042Z,43.50
2019-05-22T21:00:52.527Z,43.70
2019-05-22T21:03:23.058Z,43.80
2019-05-22T21:05:56.013Z,44.10
2019-05-22T21:08:26.605Z,44.30
2019-05-22T21:10:58.761Z,43.70
2019-05-22T21:13:28.420Z,44.10
2019-05-22T21:15:58.533Z,44.30
2019-05-22T21:18:44.088Z,44.50
2019-05-22T21:21:14.002Z,45.40
2019-05-22T21:23:44.912Z,44.50
2019-05-22T21:26:15.608Z,44.70
2019-05-22T21:28:45.760Z,44.80
2019-05-22T21:31:17.154Z,44.80
2019-05-22T21:33:47.443Z,44.90
2019-05-22T21:36:19.397Z,44.80
2019-05-22T21:38:50.008Z,44.90
2019-05-22T21:41:22.519Z,45.00
2019-05-22T21:43:53.183Z,45.10
2019-05-22T21:46:25.161Z,45.30
2019-05-22T21:48:57.209Z,45.40
2019-05-22T21:51:27.014Z,45.50
2019-05-22T21:53:57.682Z,45.50
2019-05-22T21:56:27.443Z,45.70
2019-05-22T21:58:57.600Z,45.90
2019-05-22T22:01:35.188Z,46.10
2019-05-22T22:04:10.216Z,46.10
2019-05-22T22:06:41.120Z,46.20
2019-05-22T22:09:11.364Z,46.20
2019-05-22T22:11:41.604Z,46.20
2019-05-22T22:14:11.761Z,46.30
2019-05-22T22:16:43.843Z,46.30
2019-05-22T22:19:15.168Z,46.40
2019-05-22T22:21:46.006Z,46.40
2019-05-22T22:24:16.621Z,46.40
2019-05-22T22:26:48.129Z,46.50
2019-05-22T22:29:19.030Z,46.50
2019-05-22T22:31:49.131Z,46.60
2019-05-22T22:34:23.334Z,46.60
2019-05-22T22:36:54.346Z,46.50
2019-05-22T22:39:25.840Z,46.60
2019-05-22T22:41:58.133Z,46.80
2019-05-22T22:44:28.850Z,46.80
2019-05-22T22:47:03.265Z,46.90
2019-05-22T22:49:34.750Z,47.10
2019-05-22T22:52:08.145Z,47.00
2019-05-22T22:54:38.151Z,47.10
2019-05-22T22:57:09.236Z,47.20
2019-05-22T22:59:39.004Z,47.20
2019-05-22T23:02:14.555Z,47.20
2019-05-22T23:04:47.188Z,47.30
2019-05-22T23:07:18.936Z,47.40
2019-05-22T23:09:49.148Z,47.40
2019-05-22T23:12:21.959Z,47.50
2019-05-22T23:14:56.826Z,47.70
2019-05-22T23:17:26.779Z,47.90
2019-05-22T23:19:54.945Z,47.90
2019-05-22T23:22:24.315Z,47.90
2019-05-22T23:24:57.297Z,48.10
2019-05-22T23:27:27.201Z,48.10
2019-05-22T23:29:57.730Z,47.70
2019-05-22T23:32:28.363Z,48.00
2019-05-22T23:34:59.430Z,48.20
2019-05-22T23:37:30.648Z,48.30
2019-05-22T23:40:01.823Z,49.10
2019-05-22T23:42:38.070Z,48.60
2019-05-22T23:45:12.936Z,48.70
2019-05-22T23:48:02.273Z,48.80
2019-05-22T23:50:36.834Z,49.00
2019-05-22T23:53:09.017Z,49.00
2019-05-22T23:55:40.794Z,49.10
2019-05-22T23:58:13.002Z,49.20
